sensor_id;sensor_type;location;lat;lon;timestamp;pressure;altitude;pressure_sealevel;temperature;humidity
8286;BME280;4181;43.416;24.598;2022-12-05T00:01:35;100957.50;;;8.19;100.00
8286;BME280;4181;43.416;24.598;2022-12-05T00:04:03;100953.34;;;8.10;100.00
8286;BME280;4181;43.416;24.598;2022-12-05T00:06:30;100965.91;;;8.11;100.00
8286;BME280;4181;43.416;24.598;2022-12-05T00:08:58;100954.41;;;8.09;100.00
8286;BME280;4181;43.416;24.598;2022-12-05T00:11:29;100964.59;;;8.26;100.00
8286;BME280;4181;43.416;24.598;2022-12-05T00:13:57;100960.00;;;8.27;100.00
8286;BME280;4181;43.416;24.598;2022-12-05T00:16:31;100968.78;;;8.22;100.00
8286;BME280;4181;43.416;24.598;2022-12-05T00:19:00;100976.13;;;8.15;100.00
8286;BME280;4181;43.416;24.598;2022-12-05T00:21:28;100959.78;;;8.22;100.00
8286;BME280;4181;43.416;24.598;2022-12-05T00:23:55;100959.59;;;8.23;100.00
8286;BME280;4181;43.416;24.598;2022-12-05T00:26:21;100957.09;;;8.15;100.00
8286;BME280;4181;43.416;24.598;2022-12-05T00:28:47;100955.84;;;8.11;100.00
8286;BME280;4181;43.416;24.598;2022-12-05T00:31:15;100968.47;;;7.99;100.00
8286;BME280;4181;43.416;24.598;2022-12-05T00:33:41;100952.97;;;8.00;100.00
8286;BME280;4181;43.416;24.598;2022-12-05T00:36:11;100941.19;;;8.19;100.00
8286;BME280;4181;43.416;24.598;2022-12-05T00:38:37;100939.09;;;8.21;100.00
8286;BME280;4181;43.416;24.598;2022-12-05T00:41:09;100946.66;;;8.12;100.00
8286;BME280;4181;43.416;24.598;2022-12-05T00:43:35;100941.28;;;7.99;100.00
8286;BME280;4181;43.416;24.598;2022-12-05T00:46:06;100951.50;;;8.04;100.00
8286;BME280;4181;43.416;24.598;2022-12-05T00:48:32;100954.50;;;7.89;100.00
8286;BME280;4181;43.416;24.598;2022-12-05T00:53:27;100951.34;;;7.92;100.00
8286;BME280;4181;43.416;24.598;2022-12-05T00:55:52;100950.94;;;7.82;100.00
8286;BME280;4181;43.416;24.598;2022-12-05T00:58:18;100932.16;;;7.81;100.00
8286;BME280;4181;43.416;24.598;2022-12-05T01:00:43;100942.50;;;8.03;100.00
8286;BME280;4181;43.416;24.598;2022-12-05T01:03:09;100921.63;;;7.97;100.00
8286;BME280;4181;43.416;24.598;2022-12-05T01:05:34;100925.75;;;8.06;100.00
8286;BME280;4181;43.416;24.598;2022-12-05T01:08:00;100922.66;;;8.03;100.00
8286;BME280;4181;43.416;24.598;2022-12-05T01:10:25;100921.63;;;8.04;100.00
8286;BME280;4181;43.416;24.598;2022-12-05T01:12:50;100934.53;;;8.08;100.00
8286;BME280;4181;43.416;24.598;2022-12-05T01:15:16;100922.38;;;8.17;100.00
8286;BME280;4181;43.416;24.598;2022-12-05T01:17:41;100928.66;;;8.24;100.00
8286;BME280;4181;43.416;24.598;2022-12-05T01:20:07;100931.81;;;8.08;100.00
8286;BME280;4181;43.416;24.598;2022-12-05T01:22:33;100942.63;;;8.21;100.00
8286;BME280;4181;43.416;24.598;2022-12-05T01:24:58;100942.25;;;8.24;100.00
8286;BME280;4181;43.416;24.598;2022-12-05T01:27:24;100928.00;;;8.22;100.00
8286;BME280;4181;43.416;24.598;2022-12-05T01:29:49;100915.06;;;8.24;100.00
8286;BME280;4181;43.416;24.598;2022-12-05T01:32:15;100923.63;;;8.28;100.00
8286;BME280;4181;43.416;24.598;2022-12-05T01:34:40;100944.56;;;8.14;100.00
8286;BME280;4181;43.416;24.598;2022-12-05T01:37:06;100928.44;;;8.19;100.00
8286;BME280;4181;43.416;24.598;2022-12-05T01:39:31;100930.34;;;8.12;100.00
8286;BME280;4181;43.416;24.598;2022-12-05T01:41:57;100914.06;;;8.12;100.00
8286;BME280;4181;43.416;24.598;2022-12-05T01:46:49;100935.75;;;8.19;100.00
8286;BME280;4181;43.416;24.598;2022-12-05T01:49:24;100919.66;;;8.17;100.00
8286;BME280;4181;43.416;24.598;2022-12-05T01:51:54;100921.53;;;8.23;100.00
8286;BME280;4181;43.416;24.598;2022-12-05T01:54:21;100915.06;;;8.24;100.00
8286;BME280;4181;43.416;24.598;2022-12-05T01:56:51;100902.06;;;8.26;100.00
8286;BME280;4181;43.416;24.598;2022-12-05T01:59:19;100913.16;;;8.25;100.00
8286;BME280;4181;43.416;24.598;2022-12-05T02:01:45;100911.28;;;8.25;100.00
8286;BME280;4181;43.416;24.598;2022-12-05T02:04:12;100912.19;;;8.13;100.00
8286;BME280;4181;43.416;24.598;2022-12-05T02:06:37;100887.16;;;7.98;100.00
8286;BME280;4181;43.416;24.598;2022-12-05T02:09:03;100902.59;;;8.04;100.00
8286;BME280;4181;43.416;24.598;2022-12-05T02:11:30;100902.81;;;8.02;100.00
8286;BME280;4181;43.416;24.598;2022-12-05T02:30:37;100899.53;;;8.31;100.00
8286;BME280;4181;43.416;24.598;2022-12-05T02:36:21;100920.47;;;8.31;100.00
8286;BME280;4181;43.416;24.598;2022-12-05T02:42:06;100917.34;;;8.27;100.00
8286;BME280;4181;43.416;24.598;2022-12-05T02:44:42;100916.06;;;8.30;100.00
8286;BME280;4181;43.416;24.598;2022-12-05T02:47:11;100918.16;;;8.34;100.00
8286;BME280;4181;43.416;24.598;2022-12-05T02:49:39;100919.03;;;8.15;100.00
8286;BME280;4181;43.416;24.598;2022-12-05T02:52:08;100918.19;;;8.15;100.00
8286;BME280;4181;43.416;24.598;2022-12-05T02:54:36;100910.09;;;8.08;100.00
8286;BME280;4181;43.416;24.598;2022-12-05T02:57:03;100911.97;;;8.14;100.00
8286;BME280;4181;43.416;24.598;2022-12-05T02:59:29;100905.22;;;8.23;100.00
8286;BME280;4181;43.416;24.598;2022-12-05T03:01:55;100906.94;;;8.11;100.00
8286;BME280;4181;43.416;24.598;2022-12-05T03:04:23;100901.31;;;8.13;100.00
8286;BME280;4181;43.416;24.598;2022-12-05T03:06:53;100911.50;;;8.17;100.00
8286;BME280;4181;43.416;24.598;2022-12-05T03:09:23;100911.91;;;8.27;100.00
8286;BME280;4181;43.416;24.598;2022-12-05T03:11:59;100910.22;;;8.33;100.00
8286;BME280;4181;43.416;24.598;2022-12-05T03:14:30;100912.34;;;8.24;100.00
8286;BME280;4181;43.416;24.598;2022-12-05T03:17:01;100918.38;;;8.26;100.00
8286;BME280;4181;43.416;24.598;2022-12-05T03:24:59;100905.06;;;8.12;100.00
8286;BME280;4181;43.416;24.598;2022-12-05T03:27:34;100904.03;;;8.06;100.00
8286;BME280;4181;43.416;24.598;2022-12-05T03:30:08;100892.16;;;8.01;100.00
8286;BME280;4181;43.416;24.598;2022-12-05T03:35:11;100903.25;;;7.99;100.00
8286;BME280;4181;43.416;24.598;2022-12-05T03:37:47;100907.34;;;7.64;100.00
8286;BME280;4181;43.416;24.598;2022-12-05T03:42:47;100887.72;;;7.62;100.00
8286;BME280;4181;43.416;24.598;2022-12-05T03:45:17;100876.22;;;7.60;100.00
8286;BME280;4181;43.416;24.598;2022-12-05T03:47:49;100852.47;;;7.49;100.00
8286;BME280;4181;43.416;24.598;2022-12-05T03:50:25;100852.59;;;7.67;100.00
8286;BME280;4181;43.416;24.598;2022-12-05T03:55:21;100839.28;;;7.52;100.00
8286;BME280;4181;43.416;24.598;2022-12-05T03:57:53;100819.03;;;7.48;100.00
8286;BME280;4181;43.416;24.598;2022-12-05T04:00:22;100817.97;;;7.56;100.00
8286;BME280;4181;43.416;24.598;2022-12-05T04:02:56;100814.81;;;7.59;100.00
8286;BME280;4181;43.416;24.598;2022-12-05T04:05:29;100819.41;;;7.58;100.00
8286;BME280;4181;43.416;24.598;2022-12-05T04:08:10;100801.03;;;7.60;100.00
8286;BME280;4181;43.416;24.598;2022-12-05T04:10:40;100813.19;;;7.45;100.00
8286;BME280;4181;43.416;24.598;2022-12-05T04:13:24;100807.28;;;7.61;100.00
8286;BME280;4181;43.416;24.598;2022-12-05T04:15:57;100810.22;;;7.53;100.00
8286;BME280;4181;43.416;24.598;2022-12-05T04:18:52;100800.25;;;7.47;100.00
8286;BME280;4181;43.416;24.598;2022-12-05T04:21:26;100809.91;;;7.30;100.00
8286;BME280;4181;43.416;24.598;2022-12-05T04:24:13;100796.25;;;7.56;100.00
8286;BME280;4181;43.416;24.598;2022-12-05T04:27:05;100797.91;;;7.57;100.00
8286;BME280;4181;43.416;24.598;2022-12-05T04:29:39;100794.34;;;7.56;100.00
8286;BME280;4181;43.416;24.598;2022-12-05T04:32:09;100802.25;;;7.71;100.00
8286;BME280;4181;43.416;24.598;2022-12-05T04:34:37;100796.81;;;7.71;100.00
8286;BME280;4181;43.416;24.598;2022-12-05T04:37:11;100798.91;;;7.69;100.00
8286;BME280;4181;43.416;24.598;2022-12-05T04:39:46;100798.53;;;7.59;100.00
8286;BME280;4181;43.416;24.598;2022-12-05T04:42:19;100794.81;;;7.47;100.00
8286;BME280;4181;43.416;24.598;2022-12-05T04:44:50;100809.19;;;7.54;100.00
8286;BME280;4181;43.416;24.598;2022-12-05T04:47:18;100806.50;;;7.54;100.00
8286;BME280;4181;43.416;24.598;2022-12-05T04:49:45;100807.78;;;7.38;100.00
8286;BME280;4181;43.416;24.598;2022-12-05T04:52:12;100792.41;;;7.26;100.00
8286;BME280;4181;43.416;24.598;2022-12-05T04:55:21;100803.66;;;7.23;100.00
8286;BME280;4181;43.416;24.598;2022-12-05T05:00:26;100790.63;;;7.51;100.00
8286;BME280;4181;43.416;24.598;2022-12-05T05:03:10;100778.91;;;7.57;100.00
8286;BME280;4181;43.416;24.598;2022-12-05T05:05:37;100788.06;;;7.62;100.00
8286;BME280;4181;43.416;24.598;2022-12-05T05:08:03;100798.16;;;7.49;100.00
8286;BME280;4181;43.416;24.598;2022-12-05T05:10:36;100803.59;;;7.49;100.00
8286;BME280;4181;43.416;24.598;2022-12-05T05:13:03;100809.50;;;7.20;100.00
8286;BME280;4181;43.416;24.598;2022-12-05T05:15:29;100797.41;;;7.22;100.00
8286;BME280;4181;43.416;24.598;2022-12-05T05:17:54;100798.84;;;7.25;100.00
8286;BME280;4181;43.416;24.598;2022-12-05T05:20:20;100787.66;;;7.02;100.00
8286;BME280;4181;43.416;24.598;2022-12-05T05:22:49;100794.13;;;7.01;100.00
8286;BME280;4181;43.416;24.598;2022-12-05T05:25:16;100783.47;;;6.93;100.00
8286;BME280;4181;43.416;24.598;2022-12-05T05:27:42;100779.91;;;7.05;100.00
8286;BME280;4181;43.416;24.598;2022-12-05T05:30:08;100777.00;;;7.07;100.00
8286;BME280;4181;43.416;24.598;2022-12-05T05:32:34;100760.72;;;7.07;100.00
8286;BME280;4181;43.416;24.598;2022-12-05T05:34:59;100775.53;;;6.98;100.00
8286;BME280;4181;43.416;24.598;2022-12-05T05:37:25;100743.38;;;7.08;100.00
8286;BME280;4181;43.416;24.598;2022-12-05T05:39:50;100754.03;;;7.16;100.00
8286;BME280;4181;43.416;24.598;2022-12-05T05:42:16;100747.06;;;7.26;100.00
8286;BME280;4181;43.416;24.598;2022-12-05T05:44:42;100738.31;;;7.31;100.00
8286;BME280;4181;43.416;24.598;2022-12-05T05:47:08;100735.19;;;7.27;100.00
8286;BME280;4181;43.416;24.598;2022-12-05T05:49:34;100741.41;;;7.28;100.00
8286;BME280;4181;43.416;24.598;2022-12-05T05:51:59;100732.63;;;7.39;100.00
8286;BME280;4181;43.416;24.598;2022-12-05T05:54:25;100758.56;;;7.22;100.00
8286;BME280;4181;43.416;24.598;2022-12-05T05:56:50;100742.72;;;7.19;100.00
8286;BME280;4181;43.416;24.598;2022-12-05T05:59:16;100740.22;;;7.17;100.00
8286;BME280;4181;43.416;24.598;2022-12-05T06:01:41;100738.75;;;7.15;100.00
8286;BME280;4181;43.416;24.598;2022-12-05T06:04:06;100733.09;;;7.23;100.00
8286;BME280;4181;43.416;24.598;2022-12-05T06:06:32;100730.81;;;7.20;100.00
8286;BME280;4181;43.416;24.598;2022-12-05T06:08:57;100751.72;;;7.13;100.00
8286;BME280;4181;43.416;24.598;2022-12-05T06:11:25;100746.00;;;7.34;100.00
8286;BME280;4181;43.416;24.598;2022-12-05T06:13:57;100743.28;;;7.34;100.00
8286;BME280;4181;43.416;24.598;2022-12-05T06:16:25;100754.31;;;7.45;100.00
8286;BME280;4181;43.416;24.598;2022-12-05T06:18:51;100760.38;;;7.34;100.00
8286;BME280;4181;43.416;24.598;2022-12-05T06:21:17;100760.59;;;7.33;100.00
8286;BME280;4181;43.416;24.598;2022-12-05T06:23:42;100762.59;;;7.57;100.00
8286;BME280;4181;43.416;24.598;2022-12-05T06:26:14;100763.06;;;7.47;100.00
8286;BME280;4181;43.416;24.598;2022-12-05T06:28:40;100760.78;;;7.38;100.00
8286;BME280;4181;43.416;24.598;2022-12-05T06:31:11;100763.88;;;7.48;100.00
8286;BME280;4181;43.416;24.598;2022-12-05T06:33:38;100767.06;;;7.38;100.00
8286;BME280;4181;43.416;24.598;2022-12-05T06:36:11;100772.59;;;7.63;100.00
8286;BME280;4181;43.416;24.598;2022-12-05T06:38:37;100782.22;;;7.59;100.00
8286;BME280;4181;43.416;24.598;2022-12-05T06:41:05;100792.81;;;7.23;100.00
8286;BME280;4181;43.416;24.598;2022-12-05T06:43:30;100790.03;;;7.42;100.00
8286;BME280;4181;43.416;24.598;2022-12-05T06:45:56;100754.34;;;7.39;100.00
8286;BME280;4181;43.416;24.598;2022-12-05T06:48:22;100779.00;;;7.37;100.00
8286;BME280;4181;43.416;24.598;2022-12-05T06:50:51;100785.03;;;7.33;100.00
8286;BME280;4181;43.416;24.598;2022-12-05T06:53:18;100798.03;;;7.18;100.00
8286;BME280;4181;43.416;24.598;2022-12-05T06:55:43;100787.78;;;7.26;100.00
8286;BME280;4181;43.416;24.598;2022-12-05T06:58:09;100795.78;;;7.02;100.00
8286;BME280;4181;43.416;24.598;2022-12-05T07:00:34;100792.88;;;6.97;100.00
8286;BME280;4181;43.416;24.598;2022-12-05T07:03:18;100776.97;;;7.13;100.00
8286;BME280;4181;43.416;24.598;2022-12-05T07:05:44;100775.72;;;7.16;100.00
8286;BME280;4181;43.416;24.598;2022-12-05T07:08:09;100767.59;;;7.03;100.00
8286;BME280;4181;43.416;24.598;2022-12-05T07:10:35;100779.75;;;6.94;100.00
8286;BME280;4181;43.416;24.598;2022-12-05T07:13:00;100771.19;;;6.90;100.00
8286;BME280;4181;43.416;24.598;2022-12-05T07:15:25;100752.44;;;6.82;100.00
8286;BME280;4181;43.416;24.598;2022-12-05T07:17:51;100744.91;;;6.91;100.00
8286;BME280;4181;43.416;24.598;2022-12-05T07:20:16;100748.78;;;7.14;100.00
8286;BME280;4181;43.416;24.598;2022-12-05T07:22:42;100743.94;;;7.23;100.00
8286;BME280;4181;43.416;24.598;2022-12-05T07:25:09;100736.19;;;7.33;100.00
8286;BME280;4181;43.416;24.598;2022-12-05T07:27:35;100740.75;;;7.39;100.00
8286;BME280;4181;43.416;24.598;2022-12-05T07:30:00;100745.66;;;7.17;100.00
8286;BME280;4181;43.416;24.598;2022-12-05T07:32:29;100748.97;;;7.26;100.00
8286;BME280;4181;43.416;24.598;2022-12-05T07:34:55;100746.56;;;7.49;100.00
8286;BME280;4181;43.416;24.598;2022-12-05T07:37:21;100741.91;;;7.62;100.00
8286;BME280;4181;43.416;24.598;2022-12-05T07:39:46;100727.88;;;7.65;100.00
8286;BME280;4181;43.416;24.598;2022-12-05T07:42:12;100742.63;;;7.83;100.00
8286;BME280;4181;43.416;24.598;2022-12-05T07:44:37;100759.56;;;7.78;100.00
8286;BME280;4181;43.416;24.598;2022-12-05T07:47:02;100775.44;;;7.74;100.00
8286;BME280;4181;43.416;24.598;2022-12-05T07:49:28;100770.94;;;7.93;100.00
8286;BME280;4181;43.416;24.598;2022-12-05T07:51:53;100767.63;;;7.91;100.00
8286;BME280;4181;43.416;24.598;2022-12-05T07:54:19;100789.34;;;7.91;100.00
8286;BME280;4181;43.416;24.598;2022-12-05T07:56:44;100784.28;;;8.01;100.00
8286;BME280;4181;43.416;24.598;2022-12-05T07:59:11;100798.66;;;8.08;100.00
8286;BME280;4181;43.416;24.598;2022-12-05T08:01:39;100821.38;;;7.89;100.00
8286;BME280;4181;43.416;24.598;2022-12-05T08:04:05;100823.94;;;7.78;100.00
8286;BME280;4181;43.416;24.598;2022-12-05T08:06:32;100828.19;;;7.60;100.00
8286;BME280;4181;43.416;24.598;2022-12-05T08:08:58;100820.22;;;7.65;100.00
8286;BME280;4181;43.416;24.598;2022-12-05T08:11:29;100805.50;;;8.48;100.00
8286;BME280;4181;43.416;24.598;2022-12-05T08:13:56;100828.78;;;8.38;100.00
8286;BME280;4181;43.416;24.598;2022-12-05T08:16:24;100857.94;;;7.36;100.00
8286;BME280;4181;43.416;24.598;2022-12-05T08:18:54;100836.59;;;8.34;100.00
8286;BME280;4181;43.416;24.598;2022-12-05T08:21:20;100829.53;;;8.20;100.00
8286;BME280;4181;43.416;24.598;2022-12-05T08:23:46;100869.56;;;7.49;100.00
8286;BME280;4181;43.416;24.598;2022-12-05T08:26:14;100856.84;;;7.43;100.00
8286;BME280;4181;43.416;24.598;2022-12-05T08:28:41;100832.16;;;7.58;100.00
8286;BME280;4181;43.416;24.598;2022-12-05T08:31:10;100806.34;;;8.18;100.00
8286;BME280;4181;43.416;24.598;2022-12-05T08:33:36;100817.84;;;8.13;100.00
8286;BME280;4181;43.416;24.598;2022-12-05T08:36:05;100826.44;;;7.79;100.00
8286;BME280;4181;43.416;24.598;2022-12-05T08:38:31;100817.41;;;7.85;100.00
8286;BME280;4181;43.416;24.598;2022-12-05T08:41:05;100814.88;;;8.21;100.00
8286;BME280;4181;43.416;24.598;2022-12-05T08:43:31;100828.09;;;8.24;100.00
8286;BME280;4181;43.416;24.598;2022-12-05T08:45:57;100834.38;;;8.49;100.00
8286;BME280;4181;43.416;24.598;2022-12-05T08:48:23;100845.16;;;8.31;100.00
8286;BME280;4181;43.416;24.598;2022-12-05T08:50:49;100841.41;;;8.32;100.00
8286;BME280;4181;43.416;24.598;2022-12-05T08:53:15;100834.97;;;8.51;100.00
8286;BME280;4181;43.416;24.598;2022-12-05T08:55:40;100830.59;;;8.50;100.00
8286;BME280;4181;43.416;24.598;2022-12-05T08:58:06;100857.31;;;8.29;100.00
8286;BME280;4181;43.416;24.598;2022-12-05T09:00:32;100849.34;;;8.34;100.00
8286;BME280;4181;43.416;24.598;2022-12-05T09:02:57;100862.03;;;8.40;100.00
8286;BME280;4181;43.416;24.598;2022-12-05T09:05:23;100856.03;;;8.62;100.00
8286;BME280;4181;43.416;24.598;2022-12-05T09:07:49;100855.53;;;8.72;100.00
8286;BME280;4181;43.416;24.598;2022-12-05T09:10:15;100865.31;;;8.79;100.00
8286;BME280;4181;43.416;24.598;2022-12-05T09:12:41;100879.34;;;8.76;100.00
8286;BME280;4181;43.416;24.598;2022-12-05T09:15:09;100884.03;;;8.69;100.00
8286;BME280;4181;43.416;24.598;2022-12-05T09:17:34;100894.47;;;8.72;100.00
8286;BME280;4181;43.416;24.598;2022-12-05T09:20:00;100893.22;;;8.68;100.00
8286;BME280;4181;43.416;24.598;2022-12-05T09:22:25;100894.94;;;8.63;100.00
8286;BME280;4181;43.416;24.598;2022-12-05T09:24:51;100897.47;;;8.64;100.00
8286;BME280;4181;43.416;24.598;2022-12-05T09:27:17;100904.69;;;8.77;100.00
8286;BME280;4181;43.416;24.598;2022-12-05T09:29:42;100895.25;;;8.79;100.00
8286;BME280;4181;43.416;24.598;2022-12-05T09:32:09;100907.13;;;8.85;100.00
8286;BME280;4181;43.416;24.598;2022-12-05T09:34:36;100910.56;;;8.98;100.00
8286;BME280;4181;43.416;24.598;2022-12-05T09:37:03;100904.22;;;9.05;100.00
8286;BME280;4181;43.416;24.598;2022-12-05T09:39:28;100916.81;;;9.06;100.00
8286;BME280;4181;43.416;24.598;2022-12-05T09:45:22;100911.84;;;9.21;100.00
8286;BME280;4181;43.416;24.598;2022-12-05T09:48:04;100917.00;;;9.29;100.00
8286;BME280;4181;43.416;24.598;2022-12-05T09:53:29;100934.13;;;9.36;100.00
8286;BME280;4181;43.416;24.598;2022-12-05T09:58:26;100955.06;;;8.86;100.00
8286;BME280;4181;43.416;24.598;2022-12-05T10:03:45;100939.03;;;9.03;100.00
8286;BME280;4181;43.416;24.598;2022-12-05T10:06:19;100928.53;;;9.06;100.00
8286;BME280;4181;43.416;24.598;2022-12-05T10:09:13;100932.22;;;9.12;100.00
8286;BME280;4181;43.416;24.598;2022-12-05T10:11:49;100930.31;;;8.94;100.00
8286;BME280;4181;43.416;24.598;2022-12-05T10:14:36;100925.31;;;8.91;100.00
8286;BME280;4181;43.416;24.598;2022-12-05T10:17:17;100910.06;;;9.08;100.00
8286;BME280;4181;43.416;24.598;2022-12-05T10:19:46;100915.72;;;9.07;100.00
8286;BME280;4181;43.416;24.598;2022-12-05T10:22:18;100914.25;;;9.11;100.00
8286;BME280;4181;43.416;24.598;2022-12-05T10:25:02;100928.53;;;9.06;100.00
8286;BME280;4181;43.416;24.598;2022-12-05T10:27:41;100925.59;;;9.08;100.00
8286;BME280;4181;43.416;24.598;2022-12-05T10:30:14;100921.25;;;9.00;100.00
8286;BME280;4181;43.416;24.598;2022-12-05T10:33:01;100919.34;;;9.01;100.00
8286;BME280;4181;43.416;24.598;2022-12-05T10:35:32;100919.13;;;9.02;100.00
8286;BME280;4181;43.416;24.598;2022-12-05T10:38:06;100920.03;;;9.21;100.00
8286;BME280;4181;43.416;24.598;2022-12-05T10:40:37;100910.78;;;9.22;100.00
8286;BME280;4181;43.416;24.598;2022-12-05T10:43:05;100914.00;;;9.37;100.00
8286;BME280;4181;43.416;24.598;2022-12-05T10:45:34;100917.50;;;9.44;100.00
8286;BME280;4181;43.416;24.598;2022-12-05T10:48:04;100915.84;;;9.43;100.00
8286;BME280;4181;43.416;24.598;2022-12-05T10:50:35;100924.00;;;8.93;100.00
8286;BME280;4181;43.416;24.598;2022-12-05T10:53:03;100921.06;;;8.95;100.00
8286;BME280;4181;43.416;24.598;2022-12-05T10:55:35;100910.63;;;8.92;100.00
8286;BME280;4181;43.416;24.598;2022-12-05T10:58:13;100900.31;;;9.01;100.00
8286;BME280;4181;43.416;24.598;2022-12-05T11:00:41;100901.44;;;8.86;100.00
8286;BME280;4181;43.416;24.598;2022-12-05T11:03:26;100887.38;;;8.96;100.00
8286;BME280;4181;43.416;24.598;2022-12-05T11:05:57;100889.41;;;9.01;100.00
8286;BME280;4181;43.416;24.598;2022-12-05T11:08:26;100896.25;;;8.85;100.00
8286;BME280;4181;43.416;24.598;2022-12-05T11:11:19;100892.72;;;8.78;100.00
8286;BME280;4181;43.416;24.598;2022-12-05T11:14:01;100890.22;;;8.76;100.00
8286;BME280;4181;43.416;24.598;2022-12-05T11:16:33;100891.47;;;8.80;100.00
8286;BME280;4181;43.416;24.598;2022-12-05T11:19:32;100876.47;;;8.71;100.00
8286;BME280;4181;43.416;24.598;2022-12-05T11:21:58;100878.19;;;8.66;100.00
8286;BME280;4181;43.416;24.598;2022-12-05T11:24:38;100874.31;;;8.80;100.00
8286;BME280;4181;43.416;24.598;2022-12-05T11:27:30;100860.22;;;8.89;100.00
8286;BME280;4181;43.416;24.598;2022-12-05T11:32:37;100856.19;;;8.92;100.00
8286;BME280;4181;43.416;24.598;2022-12-05T11:37:51;100836.66;;;9.20;100.00
8286;BME280;4181;43.416;24.598;2022-12-05T11:51:37;100864.09;;;9.43;100.00
8286;BME280;4181;43.416;24.598;2022-12-05T11:54:31;100884.66;;;9.39;100.00
8286;BME280;4181;43.416;24.598;2022-12-05T12:08:18;100885.09;;;9.36;100.00
8286;BME280;4181;43.416;24.598;2022-12-05T12:32:42;100878.59;;;9.55;100.00
8286;BME280;4181;43.416;24.598;2022-12-05T12:35:28;100876.78;;;9.67;100.00
8286;BME280;4181;43.416;24.598;2022-12-05T12:40:53;100874.81;;;9.56;100.00
8286;BME280;4181;43.416;24.598;2022-12-05T12:43:49;100869.47;;;9.49;100.00
8286;BME280;4181;43.416;24.598;2022-12-05T12:51:57;100863.94;;;9.56;100.00
8286;BME280;4181;43.416;24.598;2022-12-05T13:00:30;100855.22;;;9.47;100.00
8286;BME280;4181;43.416;24.598;2022-12-05T13:03:19;100871.63;;;9.41;100.00
8286;BME280;4181;43.416;24.598;2022-12-05T13:06:22;100864.97;;;9.37;100.00
8286;BME280;4181;43.416;24.598;2022-12-05T13:09:14;100867.47;;;9.38;100.00
8286;BME280;4181;43.416;24.598;2022-12-05T13:11:41;100857.72;;;9.31;100.00
8286;BME280;4181;43.416;24.598;2022-12-05T13:14:14;100837.56;;;9.14;100.00
8286;BME280;4181;43.416;24.598;2022-12-05T13:16:44;100851.81;;;9.34;100.00
8286;BME280;4181;43.416;24.598;2022-12-05T13:19:42;100852.88;;;9.33;100.00
8286;BME280;4181;43.416;24.598;2022-12-05T13:22:10;100844.25;;;9.18;100.00
8286;BME280;4181;43.416;24.598;2022-12-05T13:24:36;100850.44;;;9.25;100.00
8286;BME280;4181;43.416;24.598;2022-12-05T13:27:07;100825.50;;;9.28;100.00
8286;BME280;4181;43.416;24.598;2022-12-05T13:29:39;100847.59;;;9.38;100.00
8286;BME280;4181;43.416;24.598;2022-12-05T13:32:06;100846.53;;;9.39;100.00
8286;BME280;4181;43.416;24.598;2022-12-05T13:34:47;100848.31;;;9.27;100.00
8286;BME280;4181;43.416;24.598;2022-12-05T13:37:29;100845.75;;;9.32;100.00
8286;BME280;4181;43.416;24.598;2022-12-05T13:40:32;100853.09;;;9.31;100.00
8286;BME280;4181;43.416;24.598;2022-12-05T13:43:22;100854.91;;;9.37;100.00
8286;BME280;4181;43.416;24.598;2022-12-05T13:46:06;100866.19;;;9.23;100.00
8286;BME280;4181;43.416;24.598;2022-12-05T13:48:36;100855.50;;;9.21;100.00
8286;BME280;4181;43.416;24.598;2022-12-05T13:51:30;100854.38;;;9.29;100.00
8286;BME280;4181;43.416;24.598;2022-12-05T13:54:20;100860.56;;;9.18;100.00
8286;BME280;4181;43.416;24.598;2022-12-05T13:56:52;100858.16;;;9.28;100.00
8286;BME280;4181;43.416;24.598;2022-12-05T14:02:48;100853.03;;;9.38;100.00
8286;BME280;4181;43.416;24.598;2022-12-05T14:07:51;100859.97;;;9.34;100.00
8286;BME280;4181;43.416;24.598;2022-12-05T14:10:22;100855.38;;;9.34;100.00
8286;BME280;4181;43.416;24.598;2022-12-05T14:13:00;100856.81;;;9.37;100.00
8286;BME280;4181;43.416;24.598;2022-12-05T14:18:22;100870.34;;;9.43;100.00
8286;BME280;4181;43.416;24.598;2022-12-05T14:20:56;100864.69;;;9.63;100.00
8286;BME280;4181;43.416;24.598;2022-12-05T14:34:28;100879.34;;;9.62;100.00
8286;BME280;4181;43.416;24.598;2022-12-05T14:37:02;100873.84;;;9.68;100.00
8286;BME280;4181;43.416;24.598;2022-12-05T14:39:35;100879.97;;;9.64;100.00
8286;BME280;4181;43.416;24.598;2022-12-05T14:42:06;100896.63;;;9.56;100.00
8286;BME280;4181;43.416;24.598;2022-12-05T14:44:48;100882.22;;;9.49;100.00
8286;BME280;4181;43.416;24.598;2022-12-05T14:47:21;100883.72;;;9.45;100.00
8286;BME280;4181;43.416;24.598;2022-12-05T14:50:22;100881.00;;;9.45;100.00
8286;BME280;4181;43.416;24.598;2022-12-05T14:53:52;100885.09;;;9.36;100.00
8286;BME280;4181;43.416;24.598;2022-12-05T14:58:35;100883.50;;;9.28;100.00
8286;BME280;4181;43.416;24.598;2022-12-05T15:01:06;100878.44;;;9.32;100.00
8286;BME280;4181;43.416;24.598;2022-12-05T15:03:39;100878.88;;;9.29;100.00
8286;BME280;4181;43.416;24.598;2022-12-05T15:06:10;100863.00;;;9.26;100.00
8286;BME280;4181;43.416;24.598;2022-12-05T15:08:49;100875.63;;;9.20;100.00
8286;BME280;4181;43.416;24.598;2022-12-05T15:11:19;100876.75;;;9.13;100.00
8286;BME280;4181;43.416;24.598;2022-12-05T15:16:36;100874.22;;;9.36;100.00
8286;BME280;4181;43.416;24.598;2022-12-05T15:19:11;100875.47;;;9.33;100.00
8286;BME280;4181;43.416;24.598;2022-12-05T15:21:44;100873.44;;;9.29;100.00
8286;BME280;4181;43.416;24.598;2022-12-05T15:24:12;100869.88;;;9.28;100.00
8286;BME280;4181;43.416;24.598;2022-12-05T15:26:50;100873.06;;;9.25;100.00
8286;BME280;4181;43.416;24.598;2022-12-05T15:31:50;100874.50;;;9.28;100.00
8286;BME280;4181;43.416;24.598;2022-12-05T15:34:41;100876.00;;;9.24;100.00
8286;BME280;4181;43.416;24.598;2022-12-05T15:37:16;100885.94;;;9.12;100.00
8286;BME280;4181;43.416;24.598;2022-12-05T15:42:15;100874.69;;;9.08;100.00
8286;BME280;4181;43.416;24.598;2022-12-05T15:44:40;100864.13;;;8.93;100.00
8286;BME280;4181;43.416;24.598;2022-12-05T15:47:18;100863.28;;;9.00;100.00
8286;BME280;4181;43.416;24.598;2022-12-05T15:49:44;100853.19;;;9.00;100.00